Terminal Aerodrome Forecast
Issued by NWS

Home | Current Version | Previous Version | Text Only | Print | Product List | Glossary On
Versions: 1 2 3 4 5 6 7 8 9 10 11 12
000
FTUS42 TJSJ 241120
TAFKPK
TAF
TKPK 241120Z 2412/2512 08011KT P6SM VCSH SCT018 BKN045 BKN090
      TEMPO 2412/2414 -SHRA BKN018
     FM241450 10014KT P6SM SCT020 SCT050 SCT100
     FM242300 08012KT P6SM VCSH FEW019 SCT040 SCT120=

USA.gov is the U.S. government's official web portal to all federal, state and local government web resources and services.